| time (UTC) | temp F | wind direction | speed MPH | gust MPH | rain 1hr in | rain 24hr in | rain mn in | humidity % | barometer mb |
| 20260507143120 | 57 | 271 | 1.0 | 5.0 | 0.00 | 0.00 | 0.00 | 52 | 1009.4 |
| 20260507141609 | 56 | 282 | 1.0 | 4.0 | 0.00 | 0.00 | 0.00 | 53 | 1009.3 |
| 20260507140004 | 55 | 278 | 1.0 | 4.0 | 0.00 | 0.00 | 0.00 | 53 | 1009.3 |
| 20260507134603 | 54 | 302 | 1.0 | 5.0 | 0.00 | 0.00 | 0.00 | 56 | 1009.3 |
| 20260507133005 | 53 | 288 | 1.0 | 5.0 | 0.00 | 0.00 | 0.00 | 57 | 1009.0 |
| 20260507131507 | 52 | 281 | 2.0 | 6.0 | 0.00 | 0.00 | 0.00 | 58 | 1009.0 |
| 20260507124508 | 51 | 278 | 1.0 | 5.0 | 0.00 | 0.00 | 0.00 | 60 | 1008.8 |
| 20260507123102 | 50 | 299 | 0.0 | 5.0 | 0.00 | 0.00 | 0.00 | 61 | 1008.7 |
| 20260507121603 | 50 | 302 | 1.0 | 4.0 | 0.00 | 0.00 | 0.00 | 61 | 1008.6 |
| 20260507120007 | 50 | 293 | 1.0 | 5.0 | 0.00 | 0.00 | 0.00 | 61 | 1008.5 |
| 20260507114611 | 51 | 273 | 1.0 | 5.0 | 0.00 | 0.00 | 0.00 | 61 | 1008.2 |
| 20260507113010 | 51 | 285 | 1.0 | 4.0 | 0.00 | 0.00 | 0.00 | 61 | 1008.2 |
| 20260507111503 | 52 | 297 | 0.0 | 4.0 | 0.00 | 0.00 | 0.00 | 62 | 1008.0 |
| 20260507104503 | 52 | 246 | 0.0 | 5.0 | 0.00 | 0.00 | 0.00 | 63 | 1007.7 |
| 20260507103106 | 52 | 235 | 1.0 | 4.0 | 0.00 | 0.00 | 0.00 | 63 | 1007.8 |
| 20260507101603 | 52 | 239 | 1.0 | 4.0 | 0.00 | 0.00 | 0.00 | 64 | 1007.8 |
| 20260507100004 | 52 | 235 | 2.0 | 7.0 | 0.00 | 0.00 | 0.00 | 66 | 1007.8 |
| 20260507094610 | 53 | 244 | 2.0 | 4.0 | 0.00 | 0.00 | 0.00 | 65 | 1007.8 |
| 20260507091504 | 54 | 246 | 1.0 | 7.0 | 0.00 | 0.00 | 0.00 | 62 | 1007.5 |
| 20260507084505 | 55 | 253 | 2.0 | 7.0 | 0.00 | 0.00 | 0.00 | 61 | 1007.5 |
| 20260507083102 | 56 | 246 | 2.0 | 7.0 | 0.00 | 0.00 | 0.00 | 59 | 1007.7 |
| 20260507081607 | 56 | 251 | 1.0 | 6.0 | 0.00 | 0.00 | 0.00 | 59 | 1007.5 |
| 20260507074604 | 55 | 241 | 1.0 | 4.0 | 0.00 | 0.00 | 0.00 | 60 | 1007.6 |
| 20260507073004 | 55 | 233 | 0.0 | 2.0 | 0.00 | 0.00 | 0.00 | 61 | 1007.9 |
| 20260507071502 | 54 | 233 | 0.0 | 2.0 | 0.00 | 0.00 | 0.00 | 61 | 1007.9 |
| 20260507070107 | 54 | 233 | 0.0 | 2.0 | 0.00 | 0.00 | 0.00 | 62 | 1008.0 |
| 20260507063105 | 54 | 241 | 0.0 | 1.0 | 0.00 | 0.00 | 0.00 | 62 | 1008.1 |
| 20260507061603 | 55 | 241 | 0.0 | 2.0 | 0.00 | 0.00 | 0.00 | 61 | 1008.2 |
| 20260507060002 | 54 | 230 | 0.0 | 4.0 | 0.00 | 0.00 | 0.00 | 62 | 1007.8 |
| 20260507054603 | 54 | 250 | 0.0 | 2.0 | 0.00 | 0.00 | 0.00 | 62 | 1008.6 |
| 20260507053002 | 54 | 250 | 0.0 | 2.0 | 0.00 | 0.00 | 0.00 | 63 | 1008.3 |
| 20260507051502 | 54 | 250 | 0.0 | 1.0 | 0.00 | 0.00 | 0.00 | 65 | 1008.2 |
| 20260507044503 | 54 | 250 | 0.0 | 1.0 | 0.00 | 0.00 | 0.00 | 65 | 1008.2 |
| 20260507043127 | 55 | 250 | 0.0 | 1.0 | 0.00 | 0.00 | 0.00 | 64 | 1008.3 |
| 20260507041609 | 56 | 250 | 0.0 | 0.0 | 0.00 | 0.00 | 0.00 | 63 | 1008.1 |
| 20260507040002 | 56 | 250 | 0.0 | 1.0 | 0.00 | 0.00 | 0.00 | 61 | 1008.1 |
| 20260507034601 | 57 | 250 | 0.0 | 2.0 | 0.00 | 0.00 | 0.00 | 60 | 1007.8 |
| 20260507033003 | 58 | 250 | 0.0 | 4.0 | 0.00 | 0.00 | 0.00 | 61 | 1007.6 |
| 20260507031502 | 58 | 228 | 3.0 | 7.0 | 0.00 | 0.00 | 0.00 | 60 | 1007.3 |
| 20260507024503 | 61 | 227 | 1.0 | 6.0 | 0.00 | 0.00 | 0.00 | 51 | 1008.1 |
| 20260507023111 | 62 | 250 | 3.0 | 12.0 | 0.00 | 0.00 | 0.00 | 47 | 1007.7 |
| 20260507021603 | 64 | 259 | 3.0 | 10.0 | 0.00 | 0.00 | 0.00 | 43 | 1007.5 |
| 20260507020004 | 65 | 158 | 0.0 | 4.0 | 0.00 | 0.00 | 0.00 | 32 | 1007.8 |
| 20260507014603 | 66 | 103 | 0.0 | 2.0 | 0.00 | 0.00 | 0.00 | 29 | 1007.7 |
| 20260507013003 | 66 | 103 | 0.0 | 1.0 | 0.00 | 0.00 | 0.00 | 28 | 1007.1 |
| 20260507011502 | 67 | 103 | 0.0 | 4.0 | 0.00 | 0.00 | 0.00 | 28 | 1006.8 |
| 20260507004503 | 68 | 120 | 1.0 | 3.0 | 0.00 | 0.00 | 0.00 | 27 | 1006.7 |
| 20260507003117 | 69 | 84 | 1.0 | 6.0 | 0.00 | 0.00 | 0.00 | 26 | 1006.5 |
| 20260507001616 | 70 | 88 | 1.0 | 5.0 | 0.00 | 0.00 | 0.00 | 25 | 1006.6 |
| 20260507000003 | 71 | 107 | 1.0 | 6.0 | 0.00 | 0.00 | 0.00 | 25 | 1006.5 |
| 20260506234604 | 72 | 57 | 4.0 | 9.0 | 0.00 | 0.00 | 0.00 | 24 | 1006.4 |
| 20260506233003 | 72 | 123 | 3.0 | 7.0 | 0.00 | 0.00 | 0.00 | 25 | 1006.4 |
| 20260506231503 | 71 | 101 | 3.0 | 7.0 | 0.00 | 0.00 | 0.00 | 25 | 1006.5 |
| 20260506230115 | 71 | 142 | 2.0 | 9.0 | 0.00 | 0.00 | 0.00 | 25 | 1006.5 |
| 20260506224501 | 72 | 71 | 1.0 | 7.0 | 0.00 | 0.00 | 0.00 | 25 | 1006.7 |
| 20260506223107 | 71 | 152 | 2.0 | 9.0 | 0.00 | 0.00 | 0.00 | 24 | 1006.7 |
| 20260506221617 | 72 | 159 | 2.0 | 7.0 | 0.00 | 0.00 | 0.00 | 24 | 1007.1 |
| 20260506220003 | 72 | 160 | 3.0 | 8.0 | 0.00 | 0.00 | 0.00 | 24 | 1007.2 |
| 20260506214605 | 73 | 82 | 3.0 | 9.0 | 0.00 | 0.00 | 0.00 | 23 | 1007.5 |
| 20260506213002 | 73 | 107 | 2.0 | 8.0 | 0.00 | 0.00 | 0.00 | 23 | 1007.8 |
| 20260506211503 | 72 | 139 | 3.0 | 10.0 | 0.00 | 0.00 | 0.00 | 24 | 1007.9 |
| 20260506204503 | 72 | 174 | 4.0 | 7.0 | 0.00 | 0.00 | 0.00 | 23 | 1008.3 |
| 20260506203122 | 71 | 171 | 2.0 | 6.0 | 0.00 | 0.00 | 0.00 | 24 | 1008.4 |
| 20260506201603 | 70 | 174 | 5.0 | 13.0 | 0.00 | 0.00 | 0.00 | 24 | 1008.5 |
| 20260506200002 | 70 | 151 | 4.0 | 9.0 | 0.00 | 0.00 | 0.00 | 25 | 1008.7 |
| 20260506194610 | 69 | 128 | 6.0 | 10.0 | 0.00 | 0.00 | 0.00 | 24 | 1008.8 |
| 20260506193002 | 68 | 192 | 3.0 | 8.0 | 0.00 | 0.00 | 0.00 | 24 | 1008.9 |
| 20260506191507 | 67 | 167 | 5.0 | 11.0 | 0.00 | 0.00 | 0.00 | 26 | 1009.2 |
| 20260506190104 | 66 | 85 | 6.0 | 9.0 | 0.00 | 0.00 | 0.00 | 27 | 1009.5 |
| 20260506184504 | 65 | 160 | 4.0 | 18.0 | 0.00 | 0.00 | 0.00 | 27 | 1009.6 |
| 20260506183109 | 64 | 157 | 6.0 | 10.0 | 0.00 | 0.00 | 0.00 | 28 | 1009.9 |
| 20260506181605 | 63 | 85 | 4.0 | 10.0 | 0.00 | 0.00 | 0.00 | 30 | 1010.0 |
| 20260506180003 | 62 | 176 | 6.0 | 13.0 | 0.00 | 0.00 | 0.00 | 30 | 1010.1 |
| 20260506174604 | 62 | 93 | 7.0 | 14.0 | 0.00 | 0.00 | 0.00 | 30 | 1010.4 |
| 20260506173003 | 61 | 179 | 6.0 | 10.0 | 0.00 | 0.00 | 0.00 | 33 | 1010.6 |
| 20260506171504 | 59 | 180 | 4.0 | 9.0 | 0.00 | 0.00 | 0.00 | 34 | 1011.0 |
| 20260506170110 | 57 | 201 | 4.0 | 9.0 | 0.00 | 0.00 | 0.00 | 36 | 1011.3 |
| 20260506164513 | 56 | 155 | 4.0 | 10.0 | 0.00 | 0.00 | 0.00 | 37 | 1011.5 |
| 20260506163112 | 54 | 155 | 2.0 | 10.0 | 0.00 | 0.00 | 0.00 | 39 | 1011.5 |
| 20260506161605 | 53 | 90 | 5.0 | 8.0 | 0.00 | 0.00 | 0.00 | 39 | 1011.6 |
| 20260506160003 | 52 | 110 | 4.0 | 8.0 | 0.00 | 0.00 | 0.00 | 40 | 1012.1 |
| 20260506154603 | 50 | 189 | 4.0 | 8.0 | 0.00 | 0.00 | 0.00 | 42 | 1012.2 |
| 20260506153002 | 49 | 173 | 5.0 | 10.0 | 0.00 | 0.00 | 0.00 | 43 | 1012.4 |
| 20260506151502 | 47 | 146 | 4.0 | 11.0 | 0.00 | 0.00 | 0.00 | 44 | 1012.5 |
| 20260506150109 | 45 | 176 | 4.0 | 10.0 | 0.00 | 0.00 | 0.00 | 46 | 1012.8 |
| 20260506144503 | 44 | 164 | 5.0 | 11.0 | 0.00 | 0.00 | 0.00 | 47 | 1012.9 |